createdAt,value
2022-08-05T00:00:19.407Z,66.42
2022-08-05T00:02:51.662Z,67.16
2022-08-05T00:06:02.792Z,67.64
2022-08-05T00:08:32.541Z,66.15
2022-08-05T00:10:57.133Z,66.92
2022-08-05T00:13:39.389Z,67.93
2022-08-05T00:16:12.679Z,67.53
2022-08-05T00:18:44.400Z,67.87
2022-08-05T00:21:14.436Z,68.30
2022-08-05T00:23:46.823Z,67.08
2022-08-05T00:26:22.460Z,66.03
2022-08-05T00:28:50.959Z,66.70
2022-08-05T00:31:54.113Z,67.00
2022-08-05T00:34:53.626Z,65.88
2022-08-05T00:37:12.848Z,65.62
2022-08-05T00:39:44.357Z,65.80
2022-08-05T00:42:32.615Z,65.61
2022-08-05T00:45:00.968Z,66.06
2022-08-05T00:47:53.174Z,66.82
2022-08-05T00:50:18.395Z,67.37
2022-08-05T00:52:48.944Z,66.71
2022-08-05T00:55:16.763Z,66.78
2022-08-05T00:57:57.992Z,67.20
2022-08-05T01:00:27.587Z,66.73
2022-08-05T01:02:56.498Z,67.66
2022-08-05T01:05:27.382Z,67.47
2022-08-05T01:08:41.989Z,67.31
2022-08-05T01:10:52.204Z,67.84
2022-08-05T01:13:27.363Z,67.10
2022-08-05T01:16:26.401Z,67.31
2022-08-05T01:19:00.674Z,67.47
2022-08-05T01:21:58.253Z,67.94
2022-08-05T01:24:48.674Z,67.60
2022-08-05T01:27:34.687Z,68.28
2022-08-05T01:30:20.268Z,68.32
2022-08-05T01:33:08.236Z,68.79
2022-08-05T01:35:51.989Z,68.60
2022-08-05T01:38:27.147Z,68.00
2022-08-05T01:40:59.813Z,67.77
2022-08-05T01:43:30.746Z,68.37
2022-08-05T01:46:07.310Z,69.24
2022-08-05T01:48:49.782Z,70.11
2022-08-05T01:51:19.452Z,69.43
2022-08-05T01:53:56.961Z,67.37
2022-08-05T01:58:11.541Z,69.22
2022-08-05T01:59:21.103Z,67.71
2022-08-05T02:01:54.813Z,69.51
2022-08-05T02:04:25.654Z,68.94
2022-08-05T02:06:53.905Z,68.74
2022-08-05T02:09:21.962Z,66.92
2022-08-05T02:12:10.131Z,67.91
2022-08-05T02:14:44.774Z,67.26
2022-08-05T02:18:14.625Z,67.38
2022-08-05T02:20:20.791Z,67.11
2022-08-05T02:22:57.397Z,67.78
2022-08-05T02:25:33.040Z,68.27
2022-08-05T02:28:04.302Z,68.94
2022-08-05T02:30:51.883Z,68.96
2022-08-05T02:33:35.784Z,68.45
2022-08-05T02:36:09.955Z,67.62
2022-08-05T02:38:43.739Z,69.31
2022-08-05T02:41:22.903Z,68.87
2022-08-05T02:44:02.368Z,69.00
2022-08-05T02:46:53.414Z,69.27
2022-08-05T02:49:36.448Z,69.68
2022-08-05T02:52:09.100Z,70.95
2022-08-05T02:54:41.673Z,70.29
2022-08-05T02:58:09.161Z,69.99
2022-08-05T03:00:02.764Z,70.23
2022-08-05T03:02:38.418Z,70.27
2022-08-05T03:05:10.817Z,69.86
2022-08-05T03:08:06.992Z,72.43
2022-08-05T03:10:29.680Z,71.84
2022-08-05T03:15:24.651Z,71.73
2022-08-05T03:17:55.492Z,72.66
2022-08-05T03:20:25.189Z,72.00
2022-08-05T03:22:55.235Z,71.83
2022-08-05T03:25:32.553Z,72.48
2022-08-05T03:28:03.293Z,75.24
2022-08-05T03:30:34.181Z,74.93
2022-08-05T03:33:03.861Z,73.86
2022-08-05T03:35:41.305Z,73.59
2022-08-05T03:38:12.538Z,73.49
2022-08-05T03:40:45.396Z,74.82
2022-08-05T03:44:08.930Z,74.57
2022-08-05T03:46:05.133Z,73.80
2022-08-05T03:48:36.715Z,74.34
2022-08-05T03:52:35.369Z,75.95
2022-08-05T03:55:49.743Z,75.42
2022-08-05T03:56:58.922Z,74.82
2022-08-05T03:59:47.000Z,76.51
2022-08-05T04:02:38.763Z,73.84
2022-08-05T04:05:14.031Z,74.02
2022-08-05T04:07:57.135Z,76.07
2022-08-05T04:10:30.803Z,81.01
2022-08-05T04:13:03.509Z,88.59
2022-08-05T04:15:32.842Z,85.93
2022-08-05T04:18:03.229Z,84.84
2022-08-05T04:20:31.223Z,84.92
2022-08-05T04:23:01.087Z,84.93
2022-08-05T04:25:56.984Z,85.52
2022-08-05T04:28:17.247Z,84.86
2022-08-05T04:30:45.276Z,87.46
2022-08-05T04:33:13.224Z,86.65
2022-08-05T04:36:16.571Z,85.82
2022-08-05T04:38:39.889Z,84.21
2022-08-05T04:41:10.098Z,86.46
2022-08-05T04:43:46.521Z,86.37
2022-08-05T04:46:28.119Z,87.01
2022-08-05T04:48:58.720Z,85.55
2022-08-05T04:51:30.515Z,86.02
2022-08-05T04:54:02.301Z,85.53
2022-08-05T04:56:34.964Z,89.67
2022-08-05T04:59:21.979Z,90.33
2022-08-05T05:02:35.622Z,88.25
2022-08-05T05:04:47.518Z,85.47
2022-08-05T05:07:17.047Z,87.40
2022-08-05T05:09:46.799Z,89.89
2022-08-05T05:12:14.913Z,89.52
2022-08-05T05:14:49.269Z,88.45
2022-08-05T05:17:23.848Z,86.11
2022-08-05T05:19:55.050Z,86.54
2022-08-05T05:22:26.386Z,85.45
2022-08-05T05:24:59.795Z,83.42
2022-08-05T05:27:44.231Z,82.62
2022-08-05T05:30:30.717Z,84.41
2022-08-05T05:33:09.174Z,82.99
2022-08-05T05:35:47.344Z,81.83
2022-08-05T05:38:27.090Z,81.49
2022-08-05T05:40:57.480Z,81.91
2022-08-05T05:43:54.399Z,80.84
2022-08-05T05:46:17.736Z,79.14
2022-08-05T05:48:47.773Z,79.95
2022-08-05T05:51:20.973Z,81.27
2022-08-05T05:53:57.709Z,80.17
2022-08-05T05:56:32.806Z,79.60
2022-08-05T05:59:05.831Z,78.81
2022-08-05T06:01:38.091Z,77.67
2022-08-05T06:04:11.271Z,76.28
2022-08-05T06:06:41.767Z,76.39
2022-08-05T06:09:17.440Z,73.99
2022-08-05T06:12:01.035Z,71.07
2022-08-05T06:14:31.017Z,70.92
2022-08-05T06:16:59.375Z,69.49
2022-08-05T06:19:35.088Z,68.92
2022-08-05T06:22:03.999Z,68.17
2022-08-05T06:24:32.065Z,67.87
2022-08-05T06:27:01.293Z,67.45
2022-08-05T06:29:49.472Z,67.70
2022-08-05T06:32:25.610Z,67.59
2022-08-05T06:34:56.503Z,68.12
2022-08-05T06:37:56.996Z,67.66
2022-08-05T06:40:18.304Z,67.74
2022-08-05T06:42:52.777Z,67.68
2022-08-05T06:45:44.649Z,67.47
2022-08-05T06:48:36.498Z,67.57
2022-08-05T06:50:58.392Z,65.41
2022-08-05T06:53:29.124Z,66.06
2022-08-05T06:55:58.219Z,65.31
2022-08-05T06:58:34.922Z,64.37
2022-08-05T07:01:06.670Z,63.76
2022-08-05T07:03:34.625Z,63.52
2022-08-05T07:06:05.877Z,63.14
2022-08-05T07:08:47.214Z,62.37
2022-08-05T07:11:16.334Z,62.18
2022-08-05T07:14:03.466Z,61.25
2022-08-05T07:17:58.471Z,61.52
2022-08-05T07:22:28.520Z,60.74
2022-08-05T07:24:59.889Z,61.11
2022-08-05T07:27:57.993Z,60.56
2022-08-05T07:30:33.694Z,60.90
2022-08-05T07:33:05.041Z,59.69
2022-08-05T07:36:04.527Z,59.76
2022-08-05T07:38:26.338Z,59.52
2022-08-05T07:41:35.152Z,58.85
2022-08-05T07:43:51.869Z,57.81
2022-08-05T07:46:25.481Z,57.94
2022-08-05T07:49:03.026Z,57.50
2022-08-05T07:51:37.134Z,57.79
2022-08-05T07:54:08.332Z,58.07
2022-08-05T07:57:02.335Z,58.62
2022-08-05T07:59:38.380Z,58.04
2022-08-05T08:02:17.013Z,57.39
2022-08-05T08:04:49.640Z,56.08
2022-08-05T08:07:22.501Z,55.09
2022-08-05T08:09:52.708Z,54.46
2022-08-05T08:12:33.446Z,54.81
2022-08-05T08:15:15.552Z,55.23
2022-08-05T08:17:52.379Z,55.00
2022-08-05T08:20:45.140Z,54.88
2022-08-05T08:23:59.798Z,54.96
2022-08-05T08:26:00.215Z,56.05
2022-08-05T08:28:36.943Z,55.69
2022-08-05T08:31:15.101Z,56.76
2022-08-05T08:33:51.401Z,57.14
2022-08-05T08:36:29.569Z,58.41
2022-08-05T08:39:14.859Z,57.67
2022-08-05T08:41:50.798Z,57.29
2022-08-05T08:45:17.167Z,56.85
2022-08-05T08:47:47.333Z,56.84
2022-08-05T08:50:31.645Z,57.67
2022-08-05T08:53:01.876Z,58.24
2022-08-05T08:56:04.658Z,57.88
2022-08-05T08:58:26.230Z,57.68
2022-08-05T09:01:11.046Z,58.48
2022-08-05T09:03:45.645Z,58.02
2022-08-05T09:06:20.005Z,58.19
2022-08-05T09:08:49.641Z,57.28
2022-08-05T09:11:17.660Z,55.42
2022-08-05T09:14:54.639Z,54.57
2022-08-05T09:16:54.049Z,55.11
2022-08-05T09:19:24.713Z,55.66
2022-08-05T09:22:30.838Z,53.92
2022-08-05T09:24:58.460Z,52.35
2022-08-05T09:28:05.018Z,51.25
2022-08-05T09:30:23.774Z,51.68
2022-08-05T09:32:52.992Z,50.57
2022-08-05T09:35:27.218Z,50.38
2022-08-05T09:38:12.454Z,49.73
2022-08-05T09:40:53.593Z,49.27
2022-08-05T09:43:41.138Z,49.01
2022-08-05T09:46:28.048Z,48.55
2022-08-05T09:49:08.105Z,48.76
2022-08-05T09:51:49.717Z,48.10
2022-08-05T09:54:31.603Z,47.85
2022-08-05T09:57:01.812Z,48.14
2022-08-05T09:59:34.806Z,47.53
2022-08-05T10:02:03.491Z,48.00
2022-08-05T10:04:38.451Z,47.55
2022-08-05T10:07:19.832Z,47.31
2022-08-05T10:10:13.848Z,47.97
2022-08-05T10:12:49.685Z,47.01
2022-08-05T10:15:24.220Z,47.63
2022-08-05T10:18:06.518Z,47.71
2022-08-05T10:20:36.804Z,46.71
2022-08-05T10:23:08.842Z,46.62
2022-08-05T10:25:55.907Z,45.21
2022-08-05T10:28:29.125Z,46.60
2022-08-05T10:32:53.120Z,45.87
2022-08-05T10:33:52.238Z,48.29
2022-08-05T10:36:23.596Z,53.77
2022-08-05T10:39:10.477Z,52.00
2022-08-05T10:41:52.398Z,48.86
2022-08-05T10:44:23.527Z,46.81
2022-08-05T10:46:53.884Z,46.87
2022-08-05T10:49:27.497Z,47.40
2022-08-05T10:52:05.312Z,46.87
2022-08-05T10:54:56.605Z,46.03
2022-08-05T10:57:33.850Z,45.21
2022-08-05T11:00:16.389Z,43.63
2022-08-05T11:03:25.435Z,45.21
2022-08-05T11:06:05.800Z,44.57
2022-08-05T11:08:39.289Z,43.87
2022-08-05T11:11:44.288Z,43.92
2022-08-05T11:14:15.058Z,44.09
2022-08-05T11:16:55.923Z,43.24
2022-08-05T11:20:10.894Z,42.12
2022-08-05T11:22:42.393Z,41.35
2022-08-05T11:26:05.098Z,41.43
2022-08-05T11:28:43.013Z,41.51
2022-08-05T11:31:57.768Z,42.13
2022-08-05T11:34:37.319Z,41.11
2022-08-05T11:37:06.100Z,40.66
2022-08-05T11:40:00.376Z,41.57
2022-08-05T11:42:33.114Z,40.82
2022-08-05T11:45:23.028Z,40.69
2022-08-05T11:47:58.636Z,40.67
2022-08-05T11:50:27.308Z,39.87
2022-08-05T11:52:58.197Z,40.25
2022-08-05T11:55:32.076Z,40.42
2022-08-05T11:58:10.453Z,40.15
2022-08-05T12:00:41.582Z,39.60
2022-08-05T12:03:28.479Z,39.94
2022-08-05T12:06:02.884Z,39.52
2022-08-05T12:08:32.676Z,39.60
2022-08-05T12:11:06.250Z,39.37
2022-08-05T12:13:48.828Z,39.89
2022-08-05T12:16:20.165Z,39.33
2022-08-05T12:18:55.254Z,40.11
2022-08-05T12:21:26.827Z,39.82
2022-08-05T12:24:05.025Z,39.65
2022-08-05T12:26:36.286Z,39.42
2022-08-05T12:29:09.508Z,40.28
2022-08-05T12:31:47.699Z,40.56
2022-08-05T12:34:25.996Z,41.57
2022-08-05T12:36:54.884Z,41.29
2022-08-05T12:39:34.737Z,40.34
2022-08-05T12:42:10.226Z,40.75
2022-08-05T12:44:44.485Z,40.66
2022-08-05T12:47:13.085Z,40.53
2022-08-05T12:50:04.430Z,40.11
2022-08-05T12:52:38.592Z,39.88
2022-08-05T12:55:23.547Z,39.96
2022-08-05T12:58:50.869Z,40.07
2022-08-05T13:02:01.450Z,39.89
2022-08-05T13:03:41.537Z,39.81
2022-08-05T13:06:16.497Z,40.16
2022-08-05T13:08:50.776Z,41.32
2022-08-05T13:11:59.830Z,41.90
2022-08-05T13:14:36.163Z,41.00
2022-08-05T13:17:10.299Z,40.49
2022-08-05T13:19:52.181Z,42.16
2022-08-05T13:22:28.546Z,40.78
2022-08-05T13:25:00.976Z,40.51
2022-08-05T13:27:38.736Z,40.14
2022-08-05T13:30:33.725Z,40.87
2022-08-05T13:32:57.459Z,40.85
2022-08-05T13:35:42.603Z,40.47
2022-08-05T13:38:28.237Z,40.37
2022-08-05T13:40:59.859Z,40.79
2022-08-05T13:43:45.825Z,41.07
2022-08-05T13:46:30.690Z,40.91
2022-08-05T13:49:09.830Z,41.45
2022-08-05T13:51:40.926Z,41.94
2022-08-05T13:54:11.685Z,41.88
2022-08-05T13:56:45.524Z,42.18
2022-08-05T13:59:21.410Z,41.78
2022-08-05T14:01:56.676Z,42.00
2022-08-05T14:04:50.335Z,41.81
2022-08-05T14:07:25.623Z,42.17
2022-08-05T14:10:18.822Z,42.47
2022-08-05T14:12:56.006Z,42.94
2022-08-05T14:16:05.347Z,43.40
2022-08-05T14:18:14.897Z,43.77
2022-08-05T14:20:46.883Z,44.02
2022-08-05T14:23:23.439Z,44.21
2022-08-05T14:25:58.509Z,43.68
2022-08-05T14:28:27.957Z,44.94
2022-08-05T14:30:56.138Z,45.81
2022-08-05T14:33:24.547Z,45.83
2022-08-05T14:35:54.453Z,46.42
2022-08-05T14:38:33.186Z,46.75
2022-08-05T14:41:07.504Z,46.17
2022-08-05T14:44:02.529Z,45.79
2022-08-05T14:46:28.937Z,46.12
2022-08-05T14:49:06.195Z,45.63
2022-08-05T14:51:36.380Z,45.03
2022-08-05T14:54:26.371Z,45.14
2022-08-05T14:56:55.612Z,45.13
2022-08-05T14:59:23.787Z,45.09
2022-08-05T15:01:51.697Z,45.92
2022-08-05T15:04:22.463Z,45.97
2022-08-05T15:06:50.690Z,46.45
2022-08-05T15:09:52.487Z,47.17
2022-08-05T15:12:09.358Z,46.85
2022-08-05T15:14:48.205Z,46.37
2022-08-05T15:17:45.737Z,46.93
2022-08-05T15:20:08.940Z,47.60
2022-08-05T15:22:40.887Z,47.38
2022-08-05T15:25:14.463Z,47.35
2022-08-05T15:27:52.338Z,47.28
2022-08-05T15:30:20.651Z,47.63
2022-08-05T15:32:50.506Z,47.40
2022-08-05T15:35:18.636Z,47.69
2022-08-05T15:38:34.763Z,48.07
2022-08-05T15:40:58.831Z,48.79
2022-08-05T15:43:26.965Z,48.57
2022-08-05T15:45:59.875Z,48.66
2022-08-05T15:48:29.350Z,50.07
2022-08-05T15:50:57.350Z,50.24
2022-08-05T15:53:26.458Z,50.54
2022-08-05T15:56:03.110Z,50.53
2022-08-05T15:58:36.906Z,50.76
2022-08-05T16:01:17.209Z,51.28
2022-08-05T16:03:48.417Z,52.42
2022-08-05T16:06:20.323Z,51.86
2022-08-05T16:08:50.916Z,52.49
2022-08-05T16:11:42.728Z,52.66
2022-08-05T16:14:17.055Z,52.34
2022-08-05T16:16:46.709Z,53.25
2022-08-05T16:19:25.236Z,53.72
2022-08-05T16:22:03.877Z,53.84
2022-08-05T16:24:41.068Z,53.96
2022-08-05T16:27:32.180Z,54.14
2022-08-05T16:30:13.329Z,54.86
2022-08-05T16:32:55.254Z,55.06
2022-08-05T16:35:27.831Z,55.40
2022-08-05T16:38:02.323Z,55.50
2022-08-05T16:40:52.043Z,55.80
2022-08-05T16:43:30.288Z,55.84
2022-08-05T16:46:04.279Z,56.15
2022-08-05T16:48:37.630Z,56.29
2022-08-05T16:51:09.469Z,56.56
2022-08-05T16:54:02.934Z,55.95
2022-08-05T16:56:29.201Z,56.71
2022-08-05T16:58:57.720Z,56.72
2022-08-05T17:01:27.023Z,56.79
2022-08-05T17:04:15.106Z,56.88
2022-08-05T17:06:43.126Z,56.83
2022-08-05T17:09:21.030Z,57.46
2022-08-05T17:11:53.635Z,57.13
2022-08-05T17:14:36.819Z,56.58
2022-08-05T17:17:09.287Z,57.73
2022-08-05T17:19:45.527Z,58.25
2022-08-05T17:22:24.697Z,59.43
2022-08-05T17:24:56.912Z,59.83
2022-08-05T17:27:27.308Z,59.92
2022-08-05T17:30:02.914Z,60.57
2022-08-05T17:32:34.614Z,60.71
2022-08-05T17:35:03.961Z,61.91
2022-08-05T17:37:40.938Z,61.89
2022-08-05T17:40:13.204Z,61.84
2022-08-05T17:42:49.876Z,62.42
2022-08-05T17:45:21.848Z,62.40
2022-08-05T17:47:54.918Z,62.34
2022-08-05T17:50:28.654Z,62.48
2022-08-05T17:53:00.066Z,62.94
2022-08-05T17:55:34.613Z,62.25
2022-08-05T17:58:11.135Z,62.07
2022-08-05T18:00:44.962Z,62.21
2022-08-05T18:03:55.953Z,63.00
2022-08-05T18:06:11.899Z,63.84
2022-08-05T18:08:44.672Z,64.31
2022-08-05T18:11:24.652Z,65.10
2022-08-05T18:14:04.376Z,64.84
2022-08-05T18:16:33.731Z,66.05
2022-08-05T18:19:03.254Z,66.57
2022-08-05T18:22:07.120Z,66.62
2022-08-05T18:24:19.115Z,67.99
2022-08-05T18:26:48.983Z,69.50
2022-08-05T18:29:17.037Z,69.85
2022-08-05T18:31:45.072Z,70.45
2022-08-05T18:34:14.825Z,70.85
2022-08-05T18:36:43.511Z,70.54
2022-08-05T18:39:42.106Z,71.57
2022-08-05T18:42:03.739Z,72.11
2022-08-05T18:44:34.873Z,72.02
2022-08-05T18:47:04.732Z,72.18
2022-08-05T18:49:57.949Z,72.72
2022-08-05T18:52:35.821Z,73.14
2022-08-05T18:55:10.391Z,73.63
2022-08-05T18:57:43.642Z,74.09
2022-08-05T19:00:27.220Z,74.13
2022-08-05T19:02:57.382Z,74.66
2022-08-05T19:06:12.136Z,74.28
2022-08-05T19:08:15.308Z,74.57
2022-08-05T19:10:43.452Z,74.37
2022-08-05T19:13:16.028Z,74.45
2022-08-05T19:15:58.802Z,75.20
2022-08-05T19:18:31.101Z,75.16
2022-08-05T19:21:00.533Z,74.82
2022-08-05T19:24:07.298Z,75.31
2022-08-05T19:26:19.578Z,75.72
2022-08-05T19:28:47.595Z,75.38
2022-08-05T19:31:17.954Z,75.39
2022-08-05T19:33:56.583Z,75.20
2022-08-05T19:36:27.252Z,75.51
2022-08-05T19:39:00.856Z,75.11
2022-08-05T19:41:34.801Z,75.21
2022-08-05T19:44:18.998Z,75.08
2022-08-05T19:46:47.053Z,75.19
2022-08-05T19:49:16.849Z,74.57
2022-08-05T19:52:04.616Z,73.89
2022-08-05T19:54:35.862Z,74.26
2022-08-05T19:57:06.675Z,74.80
2022-08-05T20:00:00.675Z,74.78
2022-08-05T20:02:26.473Z,73.64
2022-08-05T20:04:55.500Z,73.36
2022-08-05T20:07:46.188Z,74.22
2022-08-05T20:10:15.733Z,74.44
2022-08-05T20:12:48.357Z,74.56
2022-08-05T20:15:23.118Z,72.81
2022-08-05T20:18:10.989Z,72.84
2022-08-05T20:20:55.883Z,74.10
2022-08-05T20:23:39.818Z,74.38
2022-08-05T20:26:16.147Z,74.21
2022-08-05T20:28:46.077Z,75.33
2022-08-05T20:31:16.701Z,75.03
2022-08-05T20:33:45.564Z,75.62
2022-08-05T20:36:14.262Z,74.81
2022-08-05T20:38:53.494Z,73.77
2022-08-05T20:41:26.896Z,73.23
2022-08-05T20:44:18.707Z,73.29
2022-08-05T20:46:57.809Z,72.77
2022-08-05T20:49:26.071Z,72.91
2022-08-05T20:51:54.443Z,72.57
2022-08-05T20:54:25.394Z,72.09
2022-08-05T20:56:53.317Z,71.16
2022-08-05T20:59:26.442Z,71.01
2022-08-05T21:01:57.920Z,70.04
2022-08-05T21:04:27.107Z,69.77
2022-08-05T21:06:55.743Z,70.00
2022-08-05T21:09:25.183Z,70.90
2022-08-05T21:12:09.458Z,71.44
2022-08-05T21:14:39.082Z,71.20
2022-08-05T21:17:07.117Z,71.41
2022-08-05T21:19:46.465Z,71.24
2022-08-05T21:22:22.642Z,71.69
2022-08-05T21:24:54.298Z,71.21
2022-08-05T21:27:25.107Z,71.02
2022-08-05T21:29:55.808Z,70.47
2022-08-05T21:32:26.990Z,69.96
2022-08-05T21:35:08.887Z,70.15
2022-08-05T21:37:47.222Z,69.57
2022-08-05T21:40:16.965Z,69.35
2022-08-05T21:42:46.747Z,69.22
2022-08-05T21:45:24.175Z,69.50
2022-08-05T21:47:56.254Z,69.18
2022-08-05T21:50:25.485Z,69.04
2022-08-05T21:52:54.025Z,69.32
2022-08-05T21:56:01.615Z,69.10
2022-08-05T21:58:16.536Z,68.81
2022-08-05T22:00:51.476Z,69.47
2022-08-05T22:03:48.686Z,69.65
2022-08-05T22:06:08.202Z,69.42
2022-08-05T22:08:36.370Z,69.18
2022-08-05T22:11:15.705Z,69.63
2022-08-05T22:14:32.559Z,69.08
2022-08-05T22:16:41.913Z,68.43
2022-08-05T22:19:57.888Z,68.94
2022-08-05T22:22:08.136Z,68.65
2022-08-05T22:24:55.986Z,68.33
2022-08-05T22:28:08.942Z,68.40
2022-08-05T22:30:35.088Z,67.91
2022-08-05T22:33:04.358Z,68.19
2022-08-05T22:35:48.676Z,68.24
2022-08-05T22:38:16.989Z,68.06
2022-08-05T22:40:49.977Z,68.21
2022-08-05T22:43:36.544Z,68.47
2022-08-05T22:46:13.390Z,68.08
2022-08-05T22:48:42.167Z,68.62
2022-08-05T22:51:22.357Z,68.55
2022-08-05T22:53:50.524Z,68.70
2022-08-05T22:56:30.326Z,68.19
2022-08-05T22:59:02.857Z,68.43
2022-08-05T23:01:50.862Z,68.68
2022-08-05T23:04:19.827Z,68.57
2022-08-05T23:06:48.016Z,69.43
2022-08-05T23:09:27.674Z,69.03
2022-08-05T23:12:04.863Z,69.47
2022-08-05T23:14:35.286Z,69.47
2022-08-05T23:17:24.070Z,69.29
2022-08-05T23:20:02.451Z,69.94
2022-08-05T23:22:31.139Z,69.43
2022-08-05T23:24:59.120Z,69.50
2022-08-05T23:27:28.881Z,69.97
2022-08-05T23:30:01.694Z,70.30
2022-08-05T23:32:35.942Z,70.79
2022-08-05T23:35:03.827Z,70.58
2022-08-05T23:37:34.276Z,70.02
2022-08-05T23:40:07.801Z,70.35
2022-08-05T23:42:37.852Z,70.64
2022-08-05T23:45:14.117Z,70.31
2022-08-05T23:47:47.672Z,70.56
2022-08-05T23:50:19.975Z,70.41
2022-08-05T23:52:49.952Z,70.47
2022-08-05T23:55:19.261Z,71.23
2022-08-05T23:57:48.888Z,71.16
